Flight Track Log - Related Links

Times and Time Zones

All times are in EDT time to prevent confusion due to time zone crossing. See the UPS1121 flight status page for this flight to view local times or setup timezone preferences in your user account.

Time Position Orientation Groundspeed Altitude Reporting Facility
EDT Latitude Longitude Course Direction KTS MPH feet Rate Location/Type
Thu 08:33:34 PM 42.7319 -73.8081 165° South 152 175 1,700  Level Boston Center
Thu 08:34:20 PM 42.6903 -73.7931 165° South 180 207 2,600 2,453 Climbing Boston Center
Thu 08:35:51 PM 42.6292 -73.6789 126° Southeast 266 306 7,300 3,197 Climbing Boston Center
Thu 08:36:52 PM 42.5758 -73.5906 129° Southeast 292 336 10,700 1,820 Climbing Boston Center
Thu 08:37:53 PM 42.5164 -73.4850 127° Southeast 329 379 11,000 149 Climbing Boston Center
Thu 08:38:53 PM 42.4444 -73.3797 133° Southeast 366 421 11,000 -51 Level Boston Center
Thu 08:39:51 PM 42.3722 -73.2803 134° Southeast 373 429 10,900  Descending Boston Center
Thu 08:40:42 PM 42.3144 -73.2039 136° Southeast 373 429 11,000 57 Climbing Boston Center
Thu 08:41:36 PM 42.2567 -73.0992 127° Southeast 375 432 11,000 -440 Level Boston Center
Thu 08:42:31 PM 42.2344 -72.9842 105° East 339 390 10,200 -1,436 Descending Boston Center
Thu 08:43:33 PM 42.2142 -72.8772 104° East 275 316 8,200 -2,115 Descending Boston Center
Thu 08:44:33 PM 42.1956 -72.7681 103° East 282 325 5,900 -1,587 Descending Boston Center
Thu 08:45:34 PM 42.1708 -72.6669 108° East 274 315 5,000 -738 Descending Boston Center
Thu 08:46:35 PM 42.1669 -72.5803 93° East 225 259 4,400 -743 Descending Boston Center
Thu 08:47:27 PM 42.1336 -72.5242 129° Southeast 222 255 3,600 -750 Descending Boston Center
Thu 08:48:27 PM 42.0814 -72.5044 164° South 187 215 3,000 -371 Descending Boston Center
Thu 08:49:04 PM 42.0669 -72.5239 225° Southwest 188 216 3,000 -436 Level Boston Center
Thu 08:50:17 PM 42.0189 -72.5825 222° Southwest 149 171 2,200 -706 Descending Boston Center
Thu 08:51:03 PM 42.0022 -72.6050 225° Southwest 150 173 1,600 -655 Descending Boston Center
Thu 08:52:16 PM 41.9792 -72.6383 227° Southwest 136 157 900 -575 Descending Boston Center

Login

Don't have an account? Register now (free) for customized features, flight alerts, and more!